sensor_id;sensor_type;location;lat;lon;timestamp;P1;durP1;ratioP1;P2;durP2;ratioP2
55202;SDS011;41077;52.956;6.796;2022-09-25T00:00:12;102.10;;;96.18;;
55202;SDS011;41077;52.956;6.796;2022-09-25T00:02:41;102.90;;;96.90;;
55202;SDS011;41077;52.956;6.796;2022-09-25T00:05:06;102.53;;;96.15;;
55202;SDS011;41077;52.956;6.796;2022-09-25T00:07:32;100.18;;;94.50;;
55202;SDS011;41077;52.956;6.796;2022-09-25T00:09:58;108.60;;;102.57;;
55202;SDS011;41077;52.956;6.796;2022-09-25T00:12:24;99.45;;;93.63;;
55202;SDS011;41077;52.956;6.796;2022-09-25T00:14:50;99.22;;;93.65;;
55202;SDS011;41077;52.956;6.796;2022-09-25T00:17:16;104.13;;;97.93;;
55202;SDS011;41077;52.956;6.796;2022-09-25T00:19:41;101.85;;;95.93;;
55202;SDS011;41077;52.956;6.796;2022-09-25T00:22:20;106.47;;;99.80;;
55202;SDS011;41077;52.956;6.796;2022-09-25T00:24:48;106.18;;;99.97;;
55202;SDS011;41077;52.956;6.796;2022-09-25T00:27:14;93.65;;;88.30;;
55202;SDS011;41077;52.956;6.796;2022-09-25T00:29:40;108.47;;;102.22;;
55202;SDS011;41077;52.956;6.796;2022-09-25T00:32:06;99.63;;;94.10;;
55202;SDS011;41077;52.956;6.796;2022-09-25T00:34:33;105.70;;;99.95;;
55202;SDS011;41077;52.956;6.796;2022-09-25T00:37:00;104.13;;;98.70;;
55202;SDS011;41077;52.956;6.796;2022-09-25T00:39:26;104.28;;;98.43;;
55202;SDS011;41077;52.956;6.796;2022-09-25T00:41:52;92.43;;;87.10;;
55202;SDS011;41077;52.956;6.796;2022-09-25T00:47:12;106.43;;;100.20;;
55202;SDS011;41077;52.956;6.796;2022-09-25T00:49:41;104.57;;;98.07;;
55202;SDS011;41077;52.956;6.796;2022-09-25T00:52:09;104.03;;;98.63;;
55202;SDS011;41077;52.956;6.796;2022-09-25T00:54:38;106.97;;;101.43;;
55202;SDS011;41077;52.956;6.796;2022-09-25T00:57:12;113.30;;;106.55;;
55202;SDS011;41077;52.956;6.796;2022-09-25T00:59:45;99.97;;;94.15;;
55202;SDS011;41077;52.956;6.796;2022-09-25T01:02:33;111.65;;;105.30;;
55202;SDS011;41077;52.956;6.796;2022-09-25T01:05:13;114.60;;;108.10;;
55202;SDS011;41077;52.956;6.796;2022-09-25T01:07:43;106.03;;;100.13;;
55202;SDS011;41077;52.956;6.796;2022-09-25T01:10:11;114.97;;;108.35;;
55202;SDS011;41077;52.956;6.796;2022-09-25T01:12:39;103.13;;;97.18;;
55202;SDS011;41077;52.956;6.796;2022-09-25T01:15:08;109.78;;;103.68;;
55202;SDS011;41077;52.956;6.796;2022-09-25T01:17:56;106.05;;;100.38;;
55202;SDS011;41077;52.956;6.796;2022-09-25T01:29:24;112.25;;;106.10;;
55202;SDS011;41077;52.956;6.796;2022-09-25T01:34:49;107.70;;;101.57;;
55202;SDS011;41077;52.956;6.796;2022-09-25T01:39:49;119.05;;;112.95;;
55202;SDS011;41077;52.956;6.796;2022-09-25T01:42:35;113.28;;;106.47;;
55202;SDS011;41077;52.956;6.796;2022-09-25T01:45:06;114.20;;;108.03;;
55202;SDS011;41077;52.956;6.796;2022-09-25T01:47:35;118.97;;;112.00;;
55202;SDS011;41077;52.956;6.796;2022-09-25T01:50:07;112.05;;;105.80;;
55202;SDS011;41077;52.956;6.796;2022-09-25T01:55:20;112.93;;;106.50;;
55202;SDS011;41077;52.956;6.796;2022-09-25T01:57:54;117.45;;;110.85;;
55202;SDS011;41077;52.956;6.796;2022-09-25T02:00:23;116.35;;;109.80;;
55202;SDS011;41077;52.956;6.796;2022-09-25T02:02:58;113.47;;;107.10;;
55202;SDS011;41077;52.956;6.796;2022-09-25T02:05:34;113.65;;;107.13;;
55202;SDS011;41077;52.956;6.796;2022-09-25T02:08:14;112.97;;;107.13;;
55202;SDS011;41077;52.956;6.796;2022-09-25T02:10:49;108.97;;;102.80;;
55202;SDS011;41077;52.956;6.796;2022-09-25T02:13:20;122.50;;;115.38;;
55202;SDS011;41077;52.956;6.796;2022-09-25T02:15:52;124.55;;;117.50;;
55202;SDS011;41077;52.956;6.796;2022-09-25T02:18:29;112.25;;;106.57;;
55202;SDS011;41077;52.956;6.796;2022-09-25T02:21:27;109.80;;;103.85;;
55202;SDS011;41077;52.956;6.796;2022-09-25T02:24:02;115.50;;;108.55;;
55202;SDS011;41077;52.956;6.796;2022-09-25T02:26:36;112.43;;;106.30;;
55202;SDS011;41077;52.956;6.796;2022-09-25T02:29:02;112.93;;;106.22;;
55202;SDS011;41077;52.956;6.796;2022-09-25T02:31:31;111.40;;;105.07;;
55202;SDS011;41077;52.956;6.796;2022-09-25T02:34:01;120.20;;;113.32;;
55202;SDS011;41077;52.956;6.796;2022-09-25T02:36:27;120.40;;;113.90;;
55202;SDS011;41077;52.956;6.796;2022-09-25T02:38:54;121.28;;;114.35;;
55202;SDS011;41077;52.956;6.796;2022-09-25T02:41:28;122.72;;;116.00;;
55202;SDS011;41077;52.956;6.796;2022-09-25T02:50:22;116.78;;;110.88;;
55202;SDS011;41077;52.956;6.796;2022-09-25T02:52:59;115.85;;;110.15;;
55202;SDS011;41077;52.956;6.796;2022-09-25T02:55:52;124.03;;;117.05;;
55202;SDS011;41077;52.956;6.796;2022-09-25T02:58:31;115.47;;;109.53;;
55202;SDS011;41077;52.956;6.796;2022-09-25T03:01:02;114.05;;;107.97;;
55202;SDS011;41077;52.956;6.796;2022-09-25T03:03:31;125.22;;;118.70;;
55202;SDS011;41077;52.956;6.796;2022-09-25T03:05:59;125.97;;;119.35;;
55202;SDS011;41077;52.956;6.796;2022-09-25T03:08:26;123.78;;;117.00;;
55202;SDS011;41077;52.956;6.796;2022-09-25T03:13:31;109.50;;;103.88;;
55202;SDS011;41077;52.956;6.796;2022-09-25T03:16:09;115.57;;;109.50;;
55202;SDS011;41077;52.956;6.796;2022-09-25T03:18:47;116.25;;;109.88;;
55202;SDS011;41077;52.956;6.796;2022-09-25T03:21:13;121.10;;;114.20;;
55202;SDS011;41077;52.956;6.796;2022-09-25T03:23:39;126.55;;;119.70;;
55202;SDS011;41077;52.956;6.796;2022-09-25T03:26:05;117.80;;;111.20;;
55202;SDS011;41077;52.956;6.796;2022-09-25T03:28:32;123.80;;;116.97;;
55202;SDS011;41077;52.956;6.796;2022-09-25T03:31:02;128.23;;;120.55;;
55202;SDS011;41077;52.956;6.796;2022-09-25T03:33:32;114.13;;;107.95;;
55202;SDS011;41077;52.956;6.796;2022-09-25T03:36:07;121.78;;;114.85;;
55202;SDS011;41077;52.956;6.796;2022-09-25T03:38:36;133.10;;;125.95;;
55202;SDS011;41077;52.956;6.796;2022-09-25T03:41:02;126.43;;;119.38;;
55202;SDS011;41077;52.956;6.796;2022-09-25T03:43:33;110.07;;;104.35;;
55202;SDS011;41077;52.956;6.796;2022-09-25T03:46:00;120.90;;;114.60;;
55202;SDS011;41077;52.956;6.796;2022-09-25T03:48:28;129.45;;;122.50;;
55202;SDS011;41077;52.956;6.796;2022-09-25T03:50:54;119.68;;;112.18;;
55202;SDS011;41077;52.956;6.796;2022-09-25T03:53:20;117.57;;;111.25;;
55202;SDS011;41077;52.956;6.796;2022-09-25T03:55:46;129.75;;;122.60;;
55202;SDS011;41077;52.956;6.796;2022-09-25T03:58:16;129.07;;;122.25;;
55202;SDS011;41077;52.956;6.796;2022-09-25T04:00:43;120.55;;;113.97;;
55202;SDS011;41077;52.956;6.796;2022-09-25T04:03:10;128.77;;;121.68;;
55202;SDS011;41077;52.956;6.796;2022-09-25T04:05:36;119.90;;;113.65;;
55202;SDS011;41077;52.956;6.796;2022-09-25T04:08:03;118.82;;;112.65;;
55202;SDS011;41077;52.956;6.796;2022-09-25T04:10:30;122.43;;;115.45;;
55202;SDS011;41077;52.956;6.796;2022-09-25T04:12:56;129.85;;;121.95;;
55202;SDS011;41077;52.956;6.796;2022-09-25T04:15:22;119.07;;;112.50;;
55202;SDS011;41077;52.956;6.796;2022-09-25T04:17:49;127.60;;;120.80;;
55202;SDS011;41077;52.956;6.796;2022-09-25T04:20:16;121.90;;;115.70;;
55202;SDS011;41077;52.956;6.796;2022-09-25T04:22:43;120.88;;;113.60;;
55202;SDS011;41077;52.956;6.796;2022-09-25T04:25:08;112.20;;;105.35;;
55202;SDS011;41077;52.956;6.796;2022-09-25T04:27:34;118.40;;;112.15;;
55202;SDS011;41077;52.956;6.796;2022-09-25T04:30:04;111.57;;;104.85;;
55202;SDS011;41077;52.956;6.796;2022-09-25T04:32:31;136.70;;;129.57;;
55202;SDS011;41077;52.956;6.796;2022-09-25T04:35:15;126.97;;;120.10;;
55202;SDS011;41077;52.956;6.796;2022-09-25T04:37:41;116.57;;;110.15;;
55202;SDS011;41077;52.956;6.796;2022-09-25T04:40:07;121.85;;;115.60;;
55202;SDS011;41077;52.956;6.796;2022-09-25T04:42:33;124.80;;;117.32;;
55202;SDS011;41077;52.956;6.796;2022-09-25T04:44:58;119.50;;;110.95;;
55202;SDS011;41077;52.956;6.796;2022-09-25T04:47:26;120.18;;;113.70;;
55202;SDS011;41077;52.956;6.796;2022-09-25T04:49:54;121.03;;;114.05;;
55202;SDS011;41077;52.956;6.796;2022-09-25T04:52:20;121.78;;;115.05;;
55202;SDS011;41077;52.956;6.796;2022-09-25T04:54:46;123.60;;;117.13;;
55202;SDS011;41077;52.956;6.796;2022-09-25T04:57:15;119.13;;;112.85;;
55202;SDS011;41077;52.956;6.796;2022-09-25T04:59:45;134.68;;;127.20;;
55202;SDS011;41077;52.956;6.796;2022-09-25T05:02:15;130.65;;;123.78;;
55202;SDS011;41077;52.956;6.796;2022-09-25T05:04:40;119.80;;;112.70;;
55202;SDS011;41077;52.956;6.796;2022-09-25T05:07:06;112.45;;;105.97;;
55202;SDS011;41077;52.956;6.796;2022-09-25T05:09:32;118.53;;;112.00;;
55202;SDS011;41077;52.956;6.796;2022-09-25T05:11:58;122.35;;;115.63;;
55202;SDS011;41077;52.956;6.796;2022-09-25T05:14:24;111.35;;;105.38;;
55202;SDS011;41077;52.956;6.796;2022-09-25T05:16:50;125.55;;;118.97;;
55202;SDS011;41077;52.956;6.796;2022-09-25T05:19:16;127.47;;;119.88;;
55202;SDS011;41077;52.956;6.796;2022-09-25T05:21:42;120.72;;;114.47;;
55202;SDS011;41077;52.956;6.796;2022-09-25T05:24:08;117.82;;;111.10;;
55202;SDS011;41077;52.956;6.796;2022-09-25T05:26:36;119.50;;;112.93;;
55202;SDS011;41077;52.956;6.796;2022-09-25T05:29:03;114.97;;;108.75;;
55202;SDS011;41077;52.956;6.796;2022-09-25T05:31:30;118.30;;;112.13;;
55202;SDS011;41077;52.956;6.796;2022-09-25T05:33:56;114.93;;;108.25;;
55202;SDS011;41077;52.956;6.796;2022-09-25T05:36:22;111.65;;;105.43;;
55202;SDS011;41077;52.956;6.796;2022-09-25T05:38:48;114.80;;;108.30;;
55202;SDS011;41077;52.956;6.796;2022-09-25T05:41:13;110.13;;;104.55;;
55202;SDS011;41077;52.956;6.796;2022-09-25T05:43:42;104.45;;;97.80;;
55202;SDS011;41077;52.956;6.796;2022-09-25T05:46:11;114.93;;;108.80;;
55202;SDS011;41077;52.956;6.796;2022-09-25T05:48:37;111.30;;;105.15;;
55202;SDS011;41077;52.956;6.796;2022-09-25T05:51:03;106.32;;;100.68;;
55202;SDS011;41077;52.956;6.796;2022-09-25T05:53:29;108.28;;;102.07;;
55202;SDS011;41077;52.956;6.796;2022-09-25T05:55:56;118.25;;;112.03;;
55202;SDS011;41077;52.956;6.796;2022-09-25T05:58:24;115.28;;;108.50;;
55202;SDS011;41077;52.956;6.796;2022-09-25T06:00:51;110.47;;;104.43;;
55202;SDS011;41077;52.956;6.796;2022-09-25T06:03:18;108.97;;;102.60;;
55202;SDS011;41077;52.956;6.796;2022-09-25T06:05:44;115.75;;;108.57;;
55202;SDS011;41077;52.956;6.796;2022-09-25T06:08:10;112.60;;;106.80;;
55202;SDS011;41077;52.956;6.796;2022-09-25T06:10:37;118.97;;;112.65;;
55202;SDS011;41077;52.956;6.796;2022-09-25T06:13:04;124.47;;;117.70;;
55202;SDS011;41077;52.956;6.796;2022-09-25T06:15:34;124.28;;;117.60;;
55202;SDS011;41077;52.956;6.796;2022-09-25T06:18:04;116.93;;;110.47;;
55202;SDS011;41077;52.956;6.796;2022-09-25T06:20:32;113.72;;;107.03;;
55202;SDS011;41077;52.956;6.796;2022-09-25T06:22:57;123.65;;;117.15;;
55202;SDS011;41077;52.956;6.796;2022-09-25T06:25:25;120.75;;;114.47;;
55202;SDS011;41077;52.956;6.796;2022-09-25T06:27:56;114.47;;;108.28;;
55202;SDS011;41077;52.956;6.796;2022-09-25T06:30:27;114.47;;;108.50;;
55202;SDS011;41077;52.956;6.796;2022-09-25T06:35:34;108.72;;;102.80;;
55202;SDS011;41077;52.956;6.796;2022-09-25T06:38:01;108.85;;;103.13;;
55202;SDS011;41077;52.956;6.796;2022-09-25T06:40:28;104.90;;;98.80;;
55202;SDS011;41077;52.956;6.796;2022-09-25T06:43:01;116.43;;;110.28;;
55202;SDS011;41077;52.956;6.796;2022-09-25T06:45:33;112.23;;;106.23;;
55202;SDS011;41077;52.956;6.796;2022-09-25T06:48:03;103.22;;;97.63;;
55202;SDS011;41077;52.956;6.796;2022-09-25T06:50:36;111.50;;;105.72;;
55202;SDS011;41077;52.956;6.796;2022-09-25T06:53:05;107.63;;;102.03;;
55202;SDS011;41077;52.956;6.796;2022-09-25T06:55:31;121.82;;;114.88;;
55202;SDS011;41077;52.956;6.796;2022-09-25T06:57:59;106.43;;;100.90;;
55202;SDS011;41077;52.956;6.796;2022-09-25T07:00:25;114.50;;;108.68;;
55202;SDS011;41077;52.956;6.796;2022-09-25T07:02:51;100.13;;;94.72;;
55202;SDS011;41077;52.956;6.796;2022-09-25T07:05:36;116.00;;;109.50;;
55202;SDS011;41077;52.956;6.796;2022-09-25T07:08:02;121.80;;;114.88;;
55202;SDS011;41077;52.956;6.796;2022-09-25T07:10:27;100.65;;;95.53;;
55202;SDS011;41077;52.956;6.796;2022-09-25T07:12:53;100.38;;;95.10;;
55202;SDS011;41077;52.956;6.796;2022-09-25T07:15:19;99.55;;;94.25;;
55202;SDS011;41077;52.956;6.796;2022-09-25T07:17:45;100.50;;;95.15;;
55202;SDS011;41077;52.956;6.796;2022-09-25T07:20:11;90.30;;;85.20;;
55202;SDS011;41077;52.956;6.796;2022-09-25T07:22:39;90.88;;;85.95;;
55202;SDS011;41077;52.956;6.796;2022-09-25T07:25:06;91.25;;;85.80;;
55202;SDS011;41077;52.956;6.796;2022-09-25T07:27:33;90.80;;;85.75;;
55202;SDS011;41077;52.956;6.796;2022-09-25T07:29:59;91.25;;;86.50;;
55202;SDS011;41077;52.956;6.796;2022-09-25T07:32:25;99.18;;;93.97;;
55202;SDS011;41077;52.956;6.796;2022-09-25T07:34:51;93.00;;;87.82;;
55202;SDS011;41077;52.956;6.796;2022-09-25T07:37:17;92.57;;;87.50;;
55202;SDS011;41077;52.956;6.796;2022-09-25T07:39:43;80.78;;;76.60;;
55202;SDS011;41077;52.956;6.796;2022-09-25T07:42:11;85.45;;;80.35;;
55202;SDS011;41077;52.956;6.796;2022-09-25T07:44:37;78.18;;;73.78;;
55202;SDS011;41077;52.956;6.796;2022-09-25T07:47:04;79.10;;;74.65;;
55202;SDS011;41077;52.956;6.796;2022-09-25T07:49:31;83.35;;;79.00;;
55202;SDS011;41077;52.956;6.796;2022-09-25T07:51:59;83.82;;;79.30;;
55202;SDS011;41077;52.956;6.796;2022-09-25T07:54:25;74.53;;;70.53;;
55202;SDS011;41077;52.956;6.796;2022-09-25T07:56:51;70.70;;;66.88;;
55202;SDS011;41077;52.956;6.796;2022-09-25T07:59:16;68.50;;;64.60;;
55202;SDS011;41077;52.956;6.796;2022-09-25T08:01:42;67.28;;;63.55;;
55202;SDS011;41077;52.956;6.796;2022-09-25T08:04:08;68.72;;;65.22;;
55202;SDS011;41077;52.956;6.796;2022-09-25T08:06:34;57.22;;;53.50;;
55202;SDS011;41077;52.956;6.796;2022-09-25T08:09:00;62.33;;;58.85;;
55202;SDS011;41077;52.956;6.796;2022-09-25T08:11:25;73.63;;;69.35;;
55202;SDS011;41077;52.956;6.796;2022-09-25T08:13:52;63.17;;;59.45;;
55202;SDS011;41077;52.956;6.796;2022-09-25T08:16:18;64.22;;;60.67;;
55202;SDS011;41077;52.956;6.796;2022-09-25T08:18:46;66.72;;;63.08;;
55202;SDS011;41077;52.956;6.796;2022-09-25T08:21:13;73.00;;;69.10;;
55202;SDS011;41077;52.956;6.796;2022-09-25T08:23:44;61.85;;;58.00;;
55202;SDS011;41077;52.956;6.796;2022-09-25T08:26:20;47.50;;;44.72;;
55202;SDS011;41077;52.956;6.796;2022-09-25T08:28:47;55.47;;;51.83;;
55202;SDS011;41077;52.956;6.796;2022-09-25T08:31:13;64.97;;;60.60;;
55202;SDS011;41077;52.956;6.796;2022-09-25T08:33:42;52.92;;;49.88;;
55202;SDS011;41077;52.956;6.796;2022-09-25T08:36:09;57.50;;;54.05;;
55202;SDS011;41077;52.956;6.796;2022-09-25T08:38:35;57.20;;;54.00;;
55202;SDS011;41077;52.956;6.796;2022-09-25T08:41:01;61.55;;;57.90;;
55202;SDS011;41077;52.956;6.796;2022-09-25T08:43:40;51.40;;;48.25;;
55202;SDS011;41077;52.956;6.796;2022-09-25T08:46:23;52.92;;;49.58;;
55202;SDS011;41077;52.956;6.796;2022-09-25T08:49:32;49.60;;;46.33;;
55202;SDS011;41077;52.956;6.796;2022-09-25T08:52:03;53.00;;;49.72;;
55202;SDS011;41077;52.956;6.796;2022-09-25T08:54:33;51.92;;;48.97;;
55202;SDS011;41077;52.956;6.796;2022-09-25T08:57:19;49.20;;;46.08;;
55202;SDS011;41077;52.956;6.796;2022-09-25T09:00:00;62.75;;;58.90;;
55202;SDS011;41077;52.956;6.796;2022-09-25T09:02:38;52.78;;;49.05;;
55202;SDS011;41077;52.956;6.796;2022-09-25T09:05:12;55.00;;;51.45;;
55202;SDS011;41077;52.956;6.796;2022-09-25T09:07:58;53.58;;;50.33;;
55202;SDS011;41077;52.956;6.796;2022-09-25T09:13:13;49.40;;;46.17;;
55202;SDS011;41077;52.956;6.796;2022-09-25T09:15:51;54.90;;;50.97;;
55202;SDS011;41077;52.956;6.796;2022-09-25T09:18:28;52.85;;;49.42;;
55202;SDS011;41077;52.956;6.796;2022-09-25T09:20:56;60.95;;;57.67;;
55202;SDS011;41077;52.956;6.796;2022-09-25T09:23:29;53.80;;;50.72;;
55202;SDS011;41077;52.956;6.796;2022-09-25T09:26:04;53.08;;;50.00;;
55202;SDS011;41077;52.956;6.796;2022-09-25T09:31:25;52.78;;;48.67;;
55202;SDS011;41077;52.956;6.796;2022-09-25T09:39:44;53.25;;;50.38;;
55202;SDS011;41077;52.956;6.796;2022-09-25T09:42:26;57.92;;;54.35;;
55202;SDS011;41077;52.956;6.796;2022-09-25T09:45:13;69.80;;;65.97;;
55202;SDS011;41077;52.956;6.796;2022-09-25T09:47:50;72.25;;;67.90;;
55202;SDS011;41077;52.956;6.796;2022-09-25T09:53:10;50.33;;;47.55;;
55202;SDS011;41077;52.956;6.796;2022-09-25T09:56:11;63.40;;;60.08;;
55202;SDS011;41077;52.956;6.796;2022-09-25T10:01:24;63.60;;;60.03;;
55202;SDS011;41077;52.956;6.796;2022-09-25T10:04:03;45.72;;;43.15;;
55202;SDS011;41077;52.956;6.796;2022-09-25T10:06:44;46.65;;;43.65;;
55202;SDS011;41077;52.956;6.796;2022-09-25T10:09:16;49.55;;;46.83;;
55202;SDS011;41077;52.956;6.796;2022-09-25T10:11:43;49.92;;;46.72;;
55202;SDS011;41077;52.956;6.796;2022-09-25T10:14:20;49.00;;;46.22;;
55202;SDS011;41077;52.956;6.796;2022-09-25T10:16:50;49.03;;;46.53;;
55202;SDS011;41077;52.956;6.796;2022-09-25T10:19:18;55.75;;;52.53;;
55202;SDS011;41077;52.956;6.796;2022-09-25T10:22:08;55.25;;;51.60;;
55202;SDS011;41077;52.956;6.796;2022-09-25T10:24:55;48.72;;;45.88;;
55202;SDS011;41077;52.956;6.796;2022-09-25T10:27:26;49.83;;;46.75;;
55202;SDS011;41077;52.956;6.796;2022-09-25T10:30:14;47.40;;;44.88;;
55202;SDS011;41077;52.956;6.796;2022-09-25T10:35:26;51.63;;;48.90;;
55202;SDS011;41077;52.956;6.796;2022-09-25T10:37:55;46.75;;;44.33;;
55202;SDS011;41077;52.956;6.796;2022-09-25T10:43:00;49.58;;;47.03;;
55202;SDS011;41077;52.956;6.796;2022-09-25T10:47:58;42.47;;;40.25;;
55202;SDS011;41077;52.956;6.796;2022-09-25T10:50:43;46.13;;;43.35;;
55202;SDS011;41077;52.956;6.796;2022-09-25T10:53:27;53.75;;;50.50;;
55202;SDS011;41077;52.956;6.796;2022-09-25T10:55:56;52.92;;;50.13;;
55202;SDS011;41077;52.956;6.796;2022-09-25T11:01:01;42.22;;;39.95;;
55202;SDS011;41077;52.956;6.796;2022-09-25T11:03:43;47.22;;;44.47;;
55202;SDS011;41077;52.956;6.796;2022-09-25T11:06:15;49.33;;;46.65;;
55202;SDS011;41077;52.956;6.796;2022-09-25T11:11:21;60.58;;;56.83;;
55202;SDS011;41077;52.956;6.796;2022-09-25T11:13:51;61.13;;;57.88;;
55202;SDS011;41077;52.956;6.796;2022-09-25T11:16:19;41.95;;;39.67;;
55202;SDS011;41077;52.956;6.796;2022-09-25T11:18:49;46.38;;;43.72;;
55202;SDS011;41077;52.956;6.796;2022-09-25T11:21:36;50.13;;;47.50;;
55202;SDS011;41077;52.956;6.796;2022-09-25T11:24:15;46.65;;;43.90;;
55202;SDS011;41077;52.956;6.796;2022-09-25T11:30:04;65.25;;;61.50;;
55202;SDS011;41077;52.956;6.796;2022-09-25T11:35:11;43.60;;;41.22;;
55202;SDS011;41077;52.956;6.796;2022-09-25T11:46:24;42.50;;;40.00;;
55202;SDS011;41077;52.956;6.796;2022-09-25T11:49:22;40.30;;;38.08;;
55202;SDS011;41077;52.956;6.796;2022-09-25T12:13:42;56.80;;;53.78;;
55202;SDS011;41077;52.956;6.796;2022-09-25T12:21:48;48.83;;;46.22;;
55202;SDS011;41077;52.956;6.796;2022-09-25T12:29:48;41.10;;;38.90;;
55202;SDS011;41077;52.956;6.796;2022-09-25T12:32:48;47.17;;;44.60;;
55202;SDS011;41077;52.956;6.796;2022-09-25T12:46:38;27.55;;;25.85;;
55202;SDS011;41077;52.956;6.796;2022-09-25T12:51:40;30.60;;;28.33;;
55202;SDS011;41077;52.956;6.796;2022-09-25T12:54:14;42.00;;;39.65;;
55202;SDS011;41077;52.956;6.796;2022-09-25T12:59:43;44.50;;;42.28;;
55202;SDS011;41077;52.956;6.796;2022-09-25T13:08:02;41.70;;;39.58;;
55202;SDS011;41077;52.956;6.796;2022-09-25T13:13:20;44.15;;;41.75;;
55202;SDS011;41077;52.956;6.796;2022-09-25T13:15:51;39.58;;;37.35;;
55202;SDS011;41077;52.956;6.796;2022-09-25T13:18:23;44.70;;;41.97;;
55202;SDS011;41077;52.956;6.796;2022-09-25T13:20:51;40.78;;;38.55;;
55202;SDS011;41077;52.956;6.796;2022-09-25T13:23:43;40.40;;;38.03;;
55202;SDS011;41077;52.956;6.796;2022-09-25T13:26:14;45.90;;;43.38;;
55202;SDS011;41077;52.956;6.796;2022-09-25T13:36:40;43.25;;;40.80;;
55202;SDS011;41077;52.956;6.796;2022-09-25T13:47:50;45.03;;;42.55;;
55202;SDS011;41077;52.956;6.796;2022-09-25T13:50:18;42.95;;;40.60;;
55202;SDS011;41077;52.956;6.796;2022-09-25T13:55:39;35.97;;;33.55;;
55202;SDS011;41077;52.956;6.796;2022-09-25T13:58:19;36.42;;;34.28;;
55202;SDS011;41077;52.956;6.796;2022-09-25T14:06:01;42.67;;;39.92;;
55202;SDS011;41077;52.956;6.796;2022-09-25T14:08:30;42.30;;;39.72;;
55202;SDS011;41077;52.956;6.796;2022-09-25T14:10:58;45.47;;;42.63;;
55202;SDS011;41077;52.956;6.796;2022-09-25T14:13:28;43.97;;;41.30;;
55202;SDS011;41077;52.956;6.796;2022-09-25T14:15:57;45.28;;;42.10;;
55202;SDS011;41077;52.956;6.796;2022-09-25T14:20:57;43.20;;;40.60;;
55202;SDS011;41077;52.956;6.796;2022-09-25T14:23:28;44.05;;;41.58;;
55202;SDS011;41077;52.956;6.796;2022-09-25T14:26:03;41.42;;;39.35;;
55202;SDS011;41077;52.956;6.796;2022-09-25T14:28:32;41.20;;;38.67;;
55202;SDS011;41077;52.956;6.796;2022-09-25T14:31:20;44.55;;;42.17;;
55202;SDS011;41077;52.956;6.796;2022-09-25T14:47:38;42.55;;;39.92;;
55202;SDS011;41077;52.956;6.796;2022-09-25T14:50:10;45.55;;;42.55;;
55202;SDS011;41077;52.956;6.796;2022-09-25T14:52:51;43.33;;;40.85;;
55202;SDS011;41077;52.956;6.796;2022-09-25T14:55:24;42.42;;;39.92;;
55202;SDS011;41077;52.956;6.796;2022-09-25T14:57:53;46.85;;;44.15;;
55202;SDS011;41077;52.956;6.796;2022-09-25T15:00:22;43.80;;;41.25;;
55202;SDS011;41077;52.956;6.796;2022-09-25T15:02:49;40.70;;;38.33;;
55202;SDS011;41077;52.956;6.796;2022-09-25T15:07:50;45.58;;;43.17;;
55202;SDS011;41077;52.956;6.796;2022-09-25T15:13:03;27.52;;;25.83;;
55202;SDS011;41077;52.956;6.796;2022-09-25T15:15:31;20.45;;;18.95;;
55202;SDS011;41077;52.956;6.796;2022-09-25T15:17:58;17.85;;;16.75;;
55202;SDS011;41077;52.956;6.796;2022-09-25T15:20:29;15.82;;;14.70;;
55202;SDS011;41077;52.956;6.796;2022-09-25T15:23:01;16.95;;;15.95;;
55202;SDS011;41077;52.956;6.796;2022-09-25T15:25:44;17.27;;;15.75;;
55202;SDS011;41077;52.956;6.796;2022-09-25T15:28:14;14.52;;;13.02;;
55202;SDS011;41077;52.956;6.796;2022-09-25T15:30:47;12.13;;;11.07;;
55202;SDS011;41077;52.956;6.796;2022-09-25T15:33:29;8.50;;;8.00;;
55202;SDS011;41077;52.956;6.796;2022-09-25T15:36:03;8.00;;;7.43;;
55202;SDS011;41077;52.956;6.796;2022-09-25T15:38:41;13.30;;;12.43;;
55202;SDS011;41077;52.956;6.796;2022-09-25T15:41:13;8.40;;;7.50;;
55202;SDS011;41077;52.956;6.796;2022-09-25T15:43:42;11.63;;;10.73;;
55202;SDS011;41077;52.956;6.796;2022-09-25T15:48:38;16.73;;;15.77;;
55202;SDS011;41077;52.956;6.796;2022-09-25T15:51:13;21.33;;;19.92;;
55202;SDS011;41077;52.956;6.796;2022-09-25T15:53:47;11.27;;;10.18;;
55202;SDS011;41077;52.956;6.796;2022-09-25T15:56:20;13.68;;;11.40;;
55202;SDS011;41077;52.956;6.796;2022-09-25T15:59:04;16.67;;;15.68;;
55202;SDS011;41077;52.956;6.796;2022-09-25T16:01:40;22.23;;;20.92;;
55202;SDS011;41077;52.956;6.796;2022-09-25T16:04:25;23.73;;;22.23;;
55202;SDS011;41077;52.956;6.796;2022-09-25T16:09:58;31.63;;;29.60;;
55202;SDS011;41077;52.956;6.796;2022-09-25T16:18:00;36.28;;;33.75;;
55202;SDS011;41077;52.956;6.796;2022-09-25T16:20:45;40.97;;;38.88;;
55202;SDS011;41077;52.956;6.796;2022-09-25T16:23:31;40.22;;;37.78;;
55202;SDS011;41077;52.956;6.796;2022-09-25T16:25:57;40.42;;;38.03;;
55202;SDS011;41077;52.956;6.796;2022-09-25T16:28:25;41.13;;;38.60;;
55202;SDS011;41077;52.956;6.796;2022-09-25T16:31:01;39.42;;;37.25;;
55202;SDS011;41077;52.956;6.796;2022-09-25T16:36:08;41.80;;;39.35;;
55202;SDS011;41077;52.956;6.796;2022-09-25T16:38:39;39.33;;;36.92;;
55202;SDS011;41077;52.956;6.796;2022-09-25T16:41:20;44.20;;;41.50;;
55202;SDS011;41077;52.956;6.796;2022-09-25T16:44:00;46.05;;;43.22;;
55202;SDS011;41077;52.956;6.796;2022-09-25T16:46:41;41.00;;;38.45;;
55202;SDS011;41077;52.956;6.796;2022-09-25T16:49:09;41.80;;;38.65;;
55202;SDS011;41077;52.956;6.796;2022-09-25T16:51:36;37.67;;;35.65;;
55202;SDS011;41077;52.956;6.796;2022-09-25T16:54:09;43.38;;;39.40;;
55202;SDS011;41077;52.956;6.796;2022-09-25T16:56:37;34.45;;;32.35;;
55202;SDS011;41077;52.956;6.796;2022-09-25T16:59:09;38.75;;;36.50;;
55202;SDS011;41077;52.956;6.796;2022-09-25T17:01:48;37.60;;;35.38;;
55202;SDS011;41077;52.956;6.796;2022-09-25T17:04:15;37.63;;;35.30;;
55202;SDS011;41077;52.956;6.796;2022-09-25T17:06:42;42.63;;;40.20;;
55202;SDS011;41077;52.956;6.796;2022-09-25T17:09:10;45.05;;;42.55;;
55202;SDS011;41077;52.956;6.796;2022-09-25T17:11:38;38.75;;;36.53;;
55202;SDS011;41077;52.956;6.796;2022-09-25T17:14:06;43.28;;;40.70;;
55202;SDS011;41077;52.956;6.796;2022-09-25T17:16:35;40.58;;;37.90;;
55202;SDS011;41077;52.956;6.796;2022-09-25T17:19:00;43.67;;;40.80;;
55202;SDS011;41077;52.956;6.796;2022-09-25T17:21:26;41.08;;;38.70;;
55202;SDS011;41077;52.956;6.796;2022-09-25T17:23:52;40.75;;;38.45;;
55202;SDS011;41077;52.956;6.796;2022-09-25T17:28:47;41.10;;;38.67;;
55202;SDS011;41077;52.956;6.796;2022-09-25T17:31:15;39.67;;;37.00;;
55202;SDS011;41077;52.956;6.796;2022-09-25T17:33:48;36.58;;;34.20;;
55202;SDS011;41077;52.956;6.796;2022-09-25T17:36:14;45.20;;;42.30;;
55202;SDS011;41077;52.956;6.796;2022-09-25T17:38:40;39.53;;;36.95;;
55202;SDS011;41077;52.956;6.796;2022-09-25T17:41:14;39.75;;;37.22;;
55202;SDS011;41077;52.956;6.796;2022-09-25T17:43:43;43.92;;;41.58;;
55202;SDS011;41077;52.956;6.796;2022-09-25T17:46:09;41.90;;;39.53;;
55202;SDS011;41077;52.956;6.796;2022-09-25T17:48:35;43.45;;;41.08;;